sensor_id;sensor_type;location;lat;lon;timestamp;P1;durP1;ratioP1;P2;durP2;ratioP2
71127;SDS011;59249;59.736;30.568;2024-02-26T00:00:44;5.13;;;1.80;;
71127;SDS011;59249;59.736;30.568;2024-02-26T00:03:14;4.93;;;1.30;;
71127;SDS011;59249;59.736;30.568;2024-02-26T00:05:44;5.25;;;1.27;;
71127;SDS011;59249;59.736;30.568;2024-02-26T00:08:18;5.45;;;1.23;;
71127;SDS011;59249;59.736;30.568;2024-02-26T00:10:47;3.72;;;0.73;;
71127;SDS011;59249;59.736;30.568;2024-02-26T00:13:18;5.55;;;1.23;;
71127;SDS011;59249;59.736;30.568;2024-02-26T00:15:53;5.77;;;0.93;;
71127;SDS011;59249;59.736;30.568;2024-02-26T00:18:24;3.78;;;0.95;;
71127;SDS011;59249;59.736;30.568;2024-02-26T00:20:56;3.78;;;1.30;;
71127;SDS011;59249;59.736;30.568;2024-02-26T00:23:30;5.45;;;1.60;;
71127;SDS011;59249;59.736;30.568;2024-02-26T00:26:03;5.13;;;1.40;;
71127;SDS011;59249;59.736;30.568;2024-02-26T00:28:39;7.20;;;1.30;;
71127;SDS011;59249;59.736;30.568;2024-02-26T00:31:12;4.32;;;1.42;;
71127;SDS011;59249;59.736;30.568;2024-02-26T00:33:40;4.47;;;1.17;;
71127;SDS011;59249;59.736;30.568;2024-02-26T00:36:10;4.72;;;1.42;;
71127;SDS011;59249;59.736;30.568;2024-02-26T00:38:40;5.25;;;1.48;;
71127;SDS011;59249;59.736;30.568;2024-02-26T00:41:18;5.37;;;1.63;;
71127;SDS011;59249;59.736;30.568;2024-02-26T00:43:52;7.15;;;2.10;;
71127;SDS011;59249;59.736;30.568;2024-02-26T00:46:26;6.25;;;1.70;;
71127;SDS011;59249;59.736;30.568;2024-02-26T00:48:57;7.53;;;2.03;;
71127;SDS011;59249;59.736;30.568;2024-02-26T00:51:31;6.70;;;1.80;;
71127;SDS011;59249;59.736;30.568;2024-02-26T00:54:08;7.00;;;2.03;;
71127;SDS011;59249;59.736;30.568;2024-02-26T00:56:38;6.55;;;1.50;;
71127;SDS011;59249;59.736;30.568;2024-02-26T00:59:10;6.10;;;2.25;;
71127;SDS011;59249;59.736;30.568;2024-02-26T01:01:41;6.95;;;1.90;;
71127;SDS011;59249;59.736;30.568;2024-02-26T01:04:11;8.30;;;2.63;;
71127;SDS011;59249;59.736;30.568;2024-02-26T01:06:55;7.50;;;2.17;;
71127;SDS011;59249;59.736;30.568;2024-02-26T01:09:36;7.28;;;2.20;;
71127;SDS011;59249;59.736;30.568;2024-02-26T01:12:07;7.45;;;2.25;;
71127;SDS011;59249;59.736;30.568;2024-02-26T01:14:55;8.80;;;2.95;;
71127;SDS011;59249;59.736;30.568;2024-02-26T01:17:36;9.70;;;3.42;;
71127;SDS011;59249;59.736;30.568;2024-02-26T01:20:06;11.07;;;3.00;;
71127;SDS011;59249;59.736;30.568;2024-02-26T01:22:48;10.13;;;3.20;;
71127;SDS011;59249;59.736;30.568;2024-02-26T01:25:17;29.25;;;4.07;;
71127;SDS011;59249;59.736;30.568;2024-02-26T01:27:49;13.55;;;4.03;;
71127;SDS011;59249;59.736;30.568;2024-02-26T01:30:19;11.10;;;3.53;;
71127;SDS011;59249;59.736;30.568;2024-02-26T01:32:52;10.60;;;4.53;;
71127;SDS011;59249;59.736;30.568;2024-02-26T01:35:38;13.52;;;4.80;;
71127;SDS011;59249;59.736;30.568;2024-02-26T01:38:07;10.68;;;3.65;;
71127;SDS011;59249;59.736;30.568;2024-02-26T01:40:37;10.65;;;4.07;;
71127;SDS011;59249;59.736;30.568;2024-02-26T01:43:06;12.77;;;3.90;;
71127;SDS011;59249;59.736;30.568;2024-02-26T01:46:02;10.23;;;3.83;;
71127;SDS011;59249;59.736;30.568;2024-02-26T01:48:41;12.07;;;4.10;;
71127;SDS011;59249;59.736;30.568;2024-02-26T01:51:17;13.63;;;4.93;;
71127;SDS011;59249;59.736;30.568;2024-02-26T01:53:55;12.23;;;4.32;;
71127;SDS011;59249;59.736;30.568;2024-02-26T01:56:32;11.57;;;4.20;;
71127;SDS011;59249;59.736;30.568;2024-02-26T01:59:05;12.67;;;4.73;;
71127;SDS011;59249;59.736;30.568;2024-02-26T02:01:44;14.88;;;4.15;;
71127;SDS011;59249;59.736;30.568;2024-02-26T02:04:24;11.98;;;4.45;;
71127;SDS011;59249;59.736;30.568;2024-02-26T02:06:54;14.63;;;4.30;;
71127;SDS011;59249;59.736;30.568;2024-02-26T02:09:35;17.25;;;5.10;;
71127;SDS011;59249;59.736;30.568;2024-02-26T02:12:08;12.73;;;4.03;;
71127;SDS011;59249;59.736;30.568;2024-02-26T02:14:49;13.95;;;4.38;;
71127;SDS011;59249;59.736;30.568;2024-02-26T02:17:30;11.75;;;4.55;;
71127;SDS011;59249;59.736;30.568;2024-02-26T02:20:02;13.60;;;5.05;;
71127;SDS011;59249;59.736;30.568;2024-02-26T02:22:54;14.23;;;4.50;;
71127;SDS011;59249;59.736;30.568;2024-02-26T02:25:40;15.90;;;4.93;;
71127;SDS011;59249;59.736;30.568;2024-02-26T02:28:11;13.25;;;4.38;;
71127;SDS011;59249;59.736;30.568;2024-02-26T02:30:43;15.65;;;5.45;;
71127;SDS011;59249;59.736;30.568;2024-02-26T02:33:16;12.88;;;4.43;;
71127;SDS011;59249;59.736;30.568;2024-02-26T02:35:51;16.13;;;4.57;;
71127;SDS011;59249;59.736;30.568;2024-02-26T02:38:24;14.77;;;5.00;;
71127;SDS011;59249;59.736;30.568;2024-02-26T02:40:58;12.82;;;4.68;;
71127;SDS011;59249;59.736;30.568;2024-02-26T02:43:28;13.27;;;4.60;;
71127;SDS011;59249;59.736;30.568;2024-02-26T02:45:58;12.75;;;4.47;;
71127;SDS011;59249;59.736;30.568;2024-02-26T02:48:28;12.77;;;4.63;;
71127;SDS011;59249;59.736;30.568;2024-02-26T02:50:59;13.70;;;5.03;;
71127;SDS011;59249;59.736;30.568;2024-02-26T02:53:39;15.80;;;6.82;;
71127;SDS011;59249;59.736;30.568;2024-02-26T02:56:15;13.93;;;4.80;;
71127;SDS011;59249;59.736;30.568;2024-02-26T02:58:47;14.68;;;4.90;;
71127;SDS011;59249;59.736;30.568;2024-02-26T03:01:18;14.52;;;5.10;;
71127;SDS011;59249;59.736;30.568;2024-02-26T03:03:47;14.60;;;4.70;;
71127;SDS011;59249;59.736;30.568;2024-02-26T03:06:18;13.10;;;4.68;;
71127;SDS011;59249;59.736;30.568;2024-02-26T03:08:50;12.75;;;4.65;;
71127;SDS011;59249;59.736;30.568;2024-02-26T03:11:21;14.45;;;5.25;;
71127;SDS011;59249;59.736;30.568;2024-02-26T03:13:54;14.55;;;4.72;;
71127;SDS011;59249;59.736;30.568;2024-02-26T03:16:24;13.67;;;4.10;;
71127;SDS011;59249;59.736;30.568;2024-02-26T03:18:53;12.75;;;4.60;;
71127;SDS011;59249;59.736;30.568;2024-02-26T03:21:22;13.55;;;4.47;;
71127;SDS011;59249;59.736;30.568;2024-02-26T03:23:54;13.23;;;4.22;;
71127;SDS011;59249;59.736;30.568;2024-02-26T03:26:24;13.02;;;4.18;;
71127;SDS011;59249;59.736;30.568;2024-02-26T03:28:53;15.90;;;3.70;;
71127;SDS011;59249;59.736;30.568;2024-02-26T03:31:22;16.20;;;5.15;;
71127;SDS011;59249;59.736;30.568;2024-02-26T03:33:51;12.55;;;4.60;;
71127;SDS011;59249;59.736;30.568;2024-02-26T03:36:20;13.73;;;5.15;;
71127;SDS011;59249;59.736;30.568;2024-02-26T03:38:50;15.60;;;5.28;;
71127;SDS011;59249;59.736;30.568;2024-02-26T03:41:21;14.13;;;5.60;;
71127;SDS011;59249;59.736;30.568;2024-02-26T03:43:50;14.75;;;4.95;;
71127;SDS011;59249;59.736;30.568;2024-02-26T03:46:21;13.23;;;4.78;;
71127;SDS011;59249;59.736;30.568;2024-02-26T03:48:52;14.40;;;4.95;;
71127;SDS011;59249;59.736;30.568;2024-02-26T03:51:32;15.40;;;6.10;;
71127;SDS011;59249;59.736;30.568;2024-02-26T03:54:07;8.93;;;3.43;;
71127;SDS011;59249;59.736;30.568;2024-02-26T03:56:39;13.98;;;5.18;;
71127;SDS011;59249;59.736;30.568;2024-02-26T03:59:08;10.90;;;4.07;;
71127;SDS011;59249;59.736;30.568;2024-02-26T04:01:37;13.05;;;4.90;;
71127;SDS011;59249;59.736;30.568;2024-02-26T04:04:11;13.20;;;4.47;;
71127;SDS011;59249;59.736;30.568;2024-02-26T04:06:44;14.60;;;5.17;;
71127;SDS011;59249;59.736;30.568;2024-02-26T04:09:16;13.88;;;4.18;;
71127;SDS011;59249;59.736;30.568;2024-02-26T04:11:47;16.27;;;5.35;;
71127;SDS011;59249;59.736;30.568;2024-02-26T04:14:16;14.65;;;4.93;;
71127;SDS011;59249;59.736;30.568;2024-02-26T04:16:45;12.73;;;5.43;;
71127;SDS011;59249;59.736;30.568;2024-02-26T04:19:18;15.93;;;4.90;;
71127;SDS011;59249;59.736;30.568;2024-02-26T04:21:47;14.68;;;5.65;;
71127;SDS011;59249;59.736;30.568;2024-02-26T04:24:19;15.30;;;5.53;;
71127;SDS011;59249;59.736;30.568;2024-02-26T04:26:50;16.38;;;4.55;;
71127;SDS011;59249;59.736;30.568;2024-02-26T04:29:19;13.00;;;4.50;;
71127;SDS011;59249;59.736;30.568;2024-02-26T04:31:50;16.20;;;5.37;;
71127;SDS011;59249;59.736;30.568;2024-02-26T04:34:21;14.60;;;4.90;;
71127;SDS011;59249;59.736;30.568;2024-02-26T04:36:50;14.55;;;5.13;;
71127;SDS011;59249;59.736;30.568;2024-02-26T04:39:20;16.67;;;5.55;;
71127;SDS011;59249;59.736;30.568;2024-02-26T04:41:51;13.85;;;4.28;;
71127;SDS011;59249;59.736;30.568;2024-02-26T04:44:20;14.13;;;4.33;;
71127;SDS011;59249;59.736;30.568;2024-02-26T04:46:49;18.13;;;6.78;;
71127;SDS011;59249;59.736;30.568;2024-02-26T04:49:18;14.27;;;5.90;;
71127;SDS011;59249;59.736;30.568;2024-02-26T04:51:47;16.83;;;6.53;;
71127;SDS011;59249;59.736;30.568;2024-02-26T04:54:16;19.77;;;6.30;;
71127;SDS011;59249;59.736;30.568;2024-02-26T04:56:45;17.10;;;5.27;;
71127;SDS011;59249;59.736;30.568;2024-02-26T04:59:16;17.05;;;5.50;;
71127;SDS011;59249;59.736;30.568;2024-02-26T05:01:47;15.27;;;6.05;;
71127;SDS011;59249;59.736;30.568;2024-02-26T05:04:18;14.93;;;5.57;;
71127;SDS011;59249;59.736;30.568;2024-02-26T05:06:47;17.27;;;7.40;;
71127;SDS011;59249;59.736;30.568;2024-02-26T05:09:16;19.23;;;6.60;;
71127;SDS011;59249;59.736;30.568;2024-02-26T05:11:47;20.63;;;7.65;;
71127;SDS011;59249;59.736;30.568;2024-02-26T05:14:17;19.08;;;6.20;;
71127;SDS011;59249;59.736;30.568;2024-02-26T05:16:48;18.38;;;5.88;;
71127;SDS011;59249;59.736;30.568;2024-02-26T05:19:17;18.48;;;6.68;;
71127;SDS011;59249;59.736;30.568;2024-02-26T05:21:48;18.63;;;6.63;;
71127;SDS011;59249;59.736;30.568;2024-02-26T05:24:17;20.52;;;6.68;;
71127;SDS011;59249;59.736;30.568;2024-02-26T05:26:49;17.98;;;6.80;;
71127;SDS011;59249;59.736;30.568;2024-02-26T05:29:20;16.63;;;5.95;;
71127;SDS011;59249;59.736;30.568;2024-02-26T05:31:49;15.45;;;6.40;;
71127;SDS011;59249;59.736;30.568;2024-02-26T05:34:22;19.57;;;6.57;;
71127;SDS011;59249;59.736;30.568;2024-02-26T05:36:51;18.42;;;6.68;;
71127;SDS011;59249;59.736;30.568;2024-02-26T05:39:20;17.77;;;5.80;;
71127;SDS011;59249;59.736;30.568;2024-02-26T05:41:51;16.67;;;5.90;;
71127;SDS011;59249;59.736;30.568;2024-02-26T05:44:25;19.60;;;6.88;;
71127;SDS011;59249;59.736;30.568;2024-02-26T05:46:55;15.57;;;5.43;;
71127;SDS011;59249;59.736;30.568;2024-02-26T05:49:26;15.88;;;5.72;;
71127;SDS011;59249;59.736;30.568;2024-02-26T05:52:02;17.77;;;6.70;;
71127;SDS011;59249;59.736;30.568;2024-02-26T05:54:32;16.25;;;5.63;;
71127;SDS011;59249;59.736;30.568;2024-02-26T05:57:03;17.80;;;7.10;;
71127;SDS011;59249;59.736;30.568;2024-02-26T05:59:35;18.00;;;6.03;;
71127;SDS011;59249;59.736;30.568;2024-02-26T06:02:05;15.32;;;5.63;;
71127;SDS011;59249;59.736;30.568;2024-02-26T06:04:35;14.88;;;6.07;;
71127;SDS011;59249;59.736;30.568;2024-02-26T06:07:05;17.25;;;6.95;;
71127;SDS011;59249;59.736;30.568;2024-02-26T06:09:34;15.75;;;6.25;;
71127;SDS011;59249;59.736;30.568;2024-02-26T06:12:04;15.53;;;6.03;;
71127;SDS011;59249;59.736;30.568;2024-02-26T06:14:35;16.20;;;5.53;;
71127;SDS011;59249;59.736;30.568;2024-02-26T06:17:04;14.60;;;5.93;;
71127;SDS011;59249;59.736;30.568;2024-02-26T06:19:37;14.65;;;5.32;;
71127;SDS011;59249;59.736;30.568;2024-02-26T06:22:07;14.43;;;5.43;;
71127;SDS011;59249;59.736;30.568;2024-02-26T06:24:36;15.70;;;6.83;;
71127;SDS011;59249;59.736;30.568;2024-02-26T06:27:06;17.35;;;6.13;;
71127;SDS011;59249;59.736;30.568;2024-02-26T06:29:36;17.67;;;6.22;;
71127;SDS011;59249;59.736;30.568;2024-02-26T06:32:06;14.00;;;5.60;;
71127;SDS011;59249;59.736;30.568;2024-02-26T06:34:35;14.13;;;5.65;;
71127;SDS011;59249;59.736;30.568;2024-02-26T06:37:05;19.70;;;6.10;;
71127;SDS011;59249;59.736;30.568;2024-02-26T06:39:34;15.10;;;5.57;;
71127;SDS011;59249;59.736;30.568;2024-02-26T06:42:05;16.63;;;5.85;;
71127;SDS011;59249;59.736;30.568;2024-02-26T06:44:34;15.63;;;5.68;;
71127;SDS011;59249;59.736;30.568;2024-02-26T06:47:05;13.77;;;5.38;;
71127;SDS011;59249;59.736;30.568;2024-02-26T06:49:34;12.03;;;5.23;;
71127;SDS011;59249;59.736;30.568;2024-02-26T06:52:03;13.85;;;5.53;;
71127;SDS011;59249;59.736;30.568;2024-02-26T06:54:34;14.77;;;5.50;;
71127;SDS011;59249;59.736;30.568;2024-02-26T06:57:05;14.13;;;5.22;;
71127;SDS011;59249;59.736;30.568;2024-02-26T07:00:12;13.02;;;6.13;;
71127;SDS011;59249;59.736;30.568;2024-02-26T07:02:44;15.60;;;5.63;;
71127;SDS011;59249;59.736;30.568;2024-02-26T07:05:18;12.13;;;4.57;;
71127;SDS011;59249;59.736;30.568;2024-02-26T07:07:49;14.48;;;5.32;;
71127;SDS011;59249;59.736;30.568;2024-02-26T07:10:28;13.77;;;4.88;;
71127;SDS011;59249;59.736;30.568;2024-02-26T07:12:58;15.68;;;5.28;;
71127;SDS011;59249;59.736;30.568;2024-02-26T07:15:35;10.07;;;3.97;;
71127;SDS011;59249;59.736;30.568;2024-02-26T07:18:06;15.02;;;5.43;;
71127;SDS011;59249;59.736;30.568;2024-02-26T07:20:38;13.82;;;5.93;;
71127;SDS011;59249;59.736;30.568;2024-02-26T07:23:20;12.73;;;4.80;;
71127;SDS011;59249;59.736;30.568;2024-02-26T07:25:49;12.23;;;4.32;;
71127;SDS011;59249;59.736;30.568;2024-02-26T07:28:24;10.27;;;4.67;;
71127;SDS011;59249;59.736;30.568;2024-02-26T07:31:10;10.05;;;4.13;;
71127;SDS011;59249;59.736;30.568;2024-02-26T07:33:47;11.35;;;4.38;;
71127;SDS011;59249;59.736;30.568;2024-02-26T07:36:20;11.48;;;4.53;;
71127;SDS011;59249;59.736;30.568;2024-02-26T07:38:52;13.82;;;5.68;;
71127;SDS011;59249;59.736;30.568;2024-02-26T07:41:23;10.33;;;4.13;;
71127;SDS011;59249;59.736;30.568;2024-02-26T07:43:56;9.18;;;3.70;;
71127;SDS011;59249;59.736;30.568;2024-02-26T07:46:29;11.48;;;4.60;;
71127;SDS011;59249;59.736;30.568;2024-02-26T07:48:58;9.23;;;3.08;;
71127;SDS011;59249;59.736;30.568;2024-02-26T07:51:36;8.35;;;3.13;;
71127;SDS011;59249;59.736;30.568;2024-02-26T07:54:19;9.17;;;3.70;;
71127;SDS011;59249;59.736;30.568;2024-02-26T07:56:53;8.15;;;3.28;;
71127;SDS011;59249;59.736;30.568;2024-02-26T07:59:23;9.57;;;3.40;;
71127;SDS011;59249;59.736;30.568;2024-02-26T08:01:59;8.55;;;3.03;;
71127;SDS011;59249;59.736;30.568;2024-02-26T08:04:33;10.18;;;3.60;;
71127;SDS011;59249;59.736;30.568;2024-02-26T08:07:05;8.37;;;3.23;;
71127;SDS011;59249;59.736;30.568;2024-02-26T08:09:38;8.02;;;3.42;;
71127;SDS011;59249;59.736;30.568;2024-02-26T08:12:09;8.13;;;3.17;;
71127;SDS011;59249;59.736;30.568;2024-02-26T08:14:42;10.10;;;3.67;;
71127;SDS011;59249;59.736;30.568;2024-02-26T08:17:25;8.65;;;3.08;;
71127;SDS011;59249;59.736;30.568;2024-02-26T08:19:59;9.50;;;3.47;;
71127;SDS011;59249;59.736;30.568;2024-02-26T08:22:30;8.15;;;2.90;;
71127;SDS011;59249;59.736;30.568;2024-02-26T08:25:02;7.45;;;2.80;;
71127;SDS011;59249;59.736;30.568;2024-02-26T08:27:34;8.32;;;3.15;;
71127;SDS011;59249;59.736;30.568;2024-02-26T08:30:06;8.52;;;3.20;;
71127;SDS011;59249;59.736;30.568;2024-02-26T08:32:41;8.27;;;3.00;;
71127;SDS011;59249;59.736;30.568;2024-02-26T08:35:19;7.30;;;2.75;;
71127;SDS011;59249;59.736;30.568;2024-02-26T08:37:50;8.77;;;2.90;;
71127;SDS011;59249;59.736;30.568;2024-02-26T08:40:20;7.10;;;2.60;;
71127;SDS011;59249;59.736;30.568;2024-02-26T08:42:55;8.52;;;2.72;;
71127;SDS011;59249;59.736;30.568;2024-02-26T08:45:28;5.33;;;2.10;;
71127;SDS011;59249;59.736;30.568;2024-02-26T08:48:00;6.70;;;2.75;;
71127;SDS011;59249;59.736;30.568;2024-02-26T08:50:58;8.73;;;2.78;;
71127;SDS011;59249;59.736;30.568;2024-02-26T08:53:32;6.45;;;1.83;;
71127;SDS011;59249;59.736;30.568;2024-02-26T08:56:10;8.73;;;2.70;;
71127;SDS011;59249;59.736;30.568;2024-02-26T08:58:45;6.30;;;2.37;;
71127;SDS011;59249;59.736;30.568;2024-02-26T09:01:20;5.77;;;2.40;;
71127;SDS011;59249;59.736;30.568;2024-02-26T09:04:14;5.25;;;2.00;;
71127;SDS011;59249;59.736;30.568;2024-02-26T09:06:46;5.75;;;2.33;;
71127;SDS011;59249;59.736;30.568;2024-02-26T09:09:17;6.78;;;1.50;;
71127;SDS011;59249;59.736;30.568;2024-02-26T09:11:47;6.40;;;1.85;;
71127;SDS011;59249;59.736;30.568;2024-02-26T09:14:26;5.33;;;1.90;;
71127;SDS011;59249;59.736;30.568;2024-02-26T09:16:57;4.85;;;1.80;;
71127;SDS011;59249;59.736;30.568;2024-02-26T09:19:30;4.63;;;1.35;;
71127;SDS011;59249;59.736;30.568;2024-02-26T09:22:01;3.78;;;1.27;;
71127;SDS011;59249;59.736;30.568;2024-02-26T09:24:54;3.83;;;1.25;;
71127;SDS011;59249;59.736;30.568;2024-02-26T09:27:28;4.40;;;1.50;;
71127;SDS011;59249;59.736;30.568;2024-02-26T09:30:00;5.88;;;1.38;;
71127;SDS011;59249;59.736;30.568;2024-02-26T09:32:31;4.82;;;1.20;;
71127;SDS011;59249;59.736;30.568;2024-02-26T09:35:17;4.07;;;1.02;;
71127;SDS011;59249;59.736;30.568;2024-02-26T09:37:48;2.88;;;0.77;;
71127;SDS011;59249;59.736;30.568;2024-02-26T09:40:28;4.10;;;0.90;;
71127;SDS011;59249;59.736;30.568;2024-02-26T09:42:59;4.20;;;1.20;;
71127;SDS011;59249;59.736;30.568;2024-02-26T09:45:35;2.65;;;0.90;;
71127;SDS011;59249;59.736;30.568;2024-02-26T09:48:24;2.80;;;0.80;;
71127;SDS011;59249;59.736;30.568;2024-02-26T09:50:55;3.88;;;0.70;;
71127;SDS011;59249;59.736;30.568;2024-02-26T09:53:27;3.17;;;0.53;;
71127;SDS011;59249;59.736;30.568;2024-02-26T09:56:07;2.40;;;0.52;;
71127;SDS011;59249;59.736;30.568;2024-02-26T09:58:38;2.95;;;0.80;;
71127;SDS011;59249;59.736;30.568;2024-02-26T10:01:27;3.15;;;0.70;;
71127;SDS011;59249;59.736;30.568;2024-02-26T10:04:07;2.40;;;0.75;;
71127;SDS011;59249;59.736;30.568;2024-02-26T10:06:40;2.83;;;0.40;;
71127;SDS011;59249;59.736;30.568;2024-02-26T10:09:15;2.08;;;0.60;;
71127;SDS011;59249;59.736;30.568;2024-02-26T10:11:47;2.55;;;0.88;;
71127;SDS011;59249;59.736;30.568;2024-02-26T10:14:19;2.85;;;0.65;;
71127;SDS011;59249;59.736;30.568;2024-02-26T10:16:50;2.50;;;0.60;;
71127;SDS011;59249;59.736;30.568;2024-02-26T10:19:25;3.93;;;0.87;;
71127;SDS011;59249;59.736;30.568;2024-02-26T10:22:00;2.15;;;0.60;;
71127;SDS011;59249;59.736;30.568;2024-02-26T10:24:31;2.00;;;0.52;;
71127;SDS011;59249;59.736;30.568;2024-02-26T10:27:06;2.17;;;0.52;;
71127;SDS011;59249;59.736;30.568;2024-02-26T10:29:39;2.17;;;0.40;;
71127;SDS011;59249;59.736;30.568;2024-02-26T10:32:10;2.53;;;0.53;;
71127;SDS011;59249;59.736;30.568;2024-02-26T10:34:45;1.90;;;0.50;;
71127;SDS011;59249;59.736;30.568;2024-02-26T10:37:18;1.90;;;0.40;;
71127;SDS011;59249;59.736;30.568;2024-02-26T10:39:56;2.15;;;0.45;;
71127;SDS011;59249;59.736;30.568;2024-02-26T10:42:25;2.67;;;0.65;;
71127;SDS011;59249;59.736;30.568;2024-02-26T10:44:58;2.83;;;0.50;;
71127;SDS011;59249;59.736;30.568;2024-02-26T10:47:40;2.03;;;0.50;;
71127;SDS011;59249;59.736;30.568;2024-02-26T10:50:15;7.70;;;6.85;;
71127;SDS011;59249;59.736;30.568;2024-02-26T10:52:46;2.60;;;0.82;;
71127;SDS011;59249;59.736;30.568;2024-02-26T10:55:16;2.83;;;0.65;;
71127;SDS011;59249;59.736;30.568;2024-02-26T10:57:47;2.83;;;0.70;;
71127;SDS011;59249;59.736;30.568;2024-02-26T11:00:23;2.65;;;0.57;;
71127;SDS011;59249;59.736;30.568;2024-02-26T11:02:55;4.45;;;0.95;;
71127;SDS011;59249;59.736;30.568;2024-02-26T11:05:28;2.88;;;0.60;;
71127;SDS011;59249;59.736;30.568;2024-02-26T11:07:59;3.28;;;0.70;;
71127;SDS011;59249;59.736;30.568;2024-02-26T11:10:29;2.30;;;0.63;;
71127;SDS011;59249;59.736;30.568;2024-02-26T11:13:01;2.58;;;0.70;;
71127;SDS011;59249;59.736;30.568;2024-02-26T11:15:33;2.67;;;0.70;;
71127;SDS011;59249;59.736;30.568;2024-02-26T11:18:03;2.58;;;0.60;;
71127;SDS011;59249;59.736;30.568;2024-02-26T11:20:35;3.45;;;0.80;;
71127;SDS011;59249;59.736;30.568;2024-02-26T11:23:13;3.83;;;0.87;;
71127;SDS011;59249;59.736;30.568;2024-02-26T11:25:42;3.72;;;0.88;;
71127;SDS011;59249;59.736;30.568;2024-02-26T11:28:12;2.50;;;0.70;;
71127;SDS011;59249;59.736;30.568;2024-02-26T11:30:46;3.10;;;0.57;;
71127;SDS011;59249;59.736;30.568;2024-02-26T11:33:18;3.75;;;0.70;;
71127;SDS011;59249;59.736;30.568;2024-02-26T11:35:50;2.80;;;0.50;;
71127;SDS011;59249;59.736;30.568;2024-02-26T11:38:21;2.97;;;0.60;;
71127;SDS011;59249;59.736;30.568;2024-02-26T11:40:59;2.15;;;0.47;;
71127;SDS011;59249;59.736;30.568;2024-02-26T11:46:24;2.58;;;0.60;;
71127;SDS011;59249;59.736;30.568;2024-02-26T11:48:55;3.57;;;0.53;;
71127;SDS011;59249;59.736;30.568;2024-02-26T11:51:27;2.30;;;0.40;;
71127;SDS011;59249;59.736;30.568;2024-02-26T11:54:03;2.55;;;0.60;;
71127;SDS011;59249;59.736;30.568;2024-02-26T11:56:33;2.38;;;0.50;;
71127;SDS011;59249;59.736;30.568;2024-02-26T11:59:03;2.15;;;0.50;;
71127;SDS011;59249;59.736;30.568;2024-02-26T12:01:42;2.33;;;0.47;;
71127;SDS011;59249;59.736;30.568;2024-02-26T12:04:16;1.92;;;0.38;;
71127;SDS011;59249;59.736;30.568;2024-02-26T12:06:50;2.35;;;0.80;;
71127;SDS011;59249;59.736;30.568;2024-02-26T12:09:35;2.28;;;0.30;;
71127;SDS011;59249;59.736;30.568;2024-02-26T12:12:06;3.30;;;0.40;;
71127;SDS011;59249;59.736;30.568;2024-02-26T12:14:50;2.37;;;0.60;;
71127;SDS011;59249;59.736;30.568;2024-02-26T12:17:31;3.53;;;0.70;;
71127;SDS011;59249;59.736;30.568;2024-02-26T12:20:12;3.15;;;0.77;;
71127;SDS011;59249;59.736;30.568;2024-02-26T12:22:45;5.68;;;2.53;;
71127;SDS011;59249;59.736;30.568;2024-02-26T12:25:32;2.17;;;1.10;;
71127;SDS011;59249;59.736;30.568;2024-02-26T12:28:04;5.17;;;1.83;;
71127;SDS011;59249;59.736;30.568;2024-02-26T12:30:52;5.88;;;1.67;;
71127;SDS011;59249;59.736;30.568;2024-02-26T12:33:21;2.88;;;0.52;;
71127;SDS011;59249;59.736;30.568;2024-02-26T12:35:52;2.03;;;0.40;;
71127;SDS011;59249;59.736;30.568;2024-02-26T12:38:24;2.17;;;0.40;;
71127;SDS011;59249;59.736;30.568;2024-02-26T12:40:59;1.95;;;0.63;;
71127;SDS011;59249;59.736;30.568;2024-02-26T12:43:29;1.80;;;0.47;;
71127;SDS011;59249;59.736;30.568;2024-02-26T12:45:59;1.30;;;0.22;;
71127;SDS011;59249;59.736;30.568;2024-02-26T12:48:31;2.22;;;0.68;;
71127;SDS011;59249;59.736;30.568;2024-02-26T12:51:01;2.75;;;0.60;;
71127;SDS011;59249;59.736;30.568;2024-02-26T12:53:30;2.67;;;0.45;;
71127;SDS011;59249;59.736;30.568;2024-02-26T12:56:02;2.10;;;0.47;;
71127;SDS011;59249;59.736;30.568;2024-02-26T12:58:35;2.08;;;0.30;;
71127;SDS011;59249;59.736;30.568;2024-02-26T13:01:06;3.00;;;0.50;;
71127;SDS011;59249;59.736;30.568;2024-02-26T13:03:41;2.03;;;0.70;;
71127;SDS011;59249;59.736;30.568;2024-02-26T13:06:12;2.50;;;0.70;;
71127;SDS011;59249;59.736;30.568;2024-02-26T13:08:43;1.57;;;0.30;;
71127;SDS011;59249;59.736;30.568;2024-02-26T13:11:16;1.70;;;0.40;;
71127;SDS011;59249;59.736;30.568;2024-02-26T13:13:47;3.03;;;0.50;;
71127;SDS011;59249;59.736;30.568;2024-02-26T13:16:18;1.17;;;0.20;;
71127;SDS011;59249;59.736;30.568;2024-02-26T13:18:47;1.33;;;0.35;;
71127;SDS011;59249;59.736;30.568;2024-02-26T13:21:16;2.90;;;0.40;;
71127;SDS011;59249;59.736;30.568;2024-02-26T13:23:49;1.42;;;0.35;;
71127;SDS011;59249;59.736;30.568;2024-02-26T13:26:23;1.55;;;0.40;;
71127;SDS011;59249;59.736;30.568;2024-02-26T13:28:59;3.65;;;0.63;;
71127;SDS011;59249;59.736;30.568;2024-02-26T13:31:30;1.92;;;0.50;;
71127;SDS011;59249;59.736;30.568;2024-02-26T13:34:11;2.60;;;0.60;;
71127;SDS011;59249;59.736;30.568;2024-02-26T13:36:50;3.75;;;0.73;;
71127;SDS011;59249;59.736;30.568;2024-02-26T13:39:23;2.35;;;0.60;;
71127;SDS011;59249;59.736;30.568;2024-02-26T13:41:53;2.50;;;0.57;;
71127;SDS011;59249;59.736;30.568;2024-02-26T13:44:24;2.60;;;0.85;;
71127;SDS011;59249;59.736;30.568;2024-02-26T13:46:53;2.83;;;0.70;;
71127;SDS011;59249;59.736;30.568;2024-02-26T13:49:22;3.05;;;0.60;;
71127;SDS011;59249;59.736;30.568;2024-02-26T13:51:51;3.47;;;0.85;;
71127;SDS011;59249;59.736;30.568;2024-02-26T13:54:20;3.03;;;0.80;;
71127;SDS011;59249;59.736;30.568;2024-02-26T13:56:49;2.78;;;0.70;;
71127;SDS011;59249;59.736;30.568;2024-02-26T13:59:21;2.50;;;0.70;;
71127;SDS011;59249;59.736;30.568;2024-02-26T14:01:50;2.65;;;0.63;;
71127;SDS011;59249;59.736;30.568;2024-02-26T14:04:20;2.67;;;0.82;;
71127;SDS011;59249;59.736;30.568;2024-02-26T14:06:49;2.42;;;0.40;;
71127;SDS011;59249;59.736;30.568;2024-02-26T14:09:18;2.40;;;0.55;;
71127;SDS011;59249;59.736;30.568;2024-02-26T14:11:53;2.27;;;0.50;;
71127;SDS011;59249;59.736;30.568;2024-02-26T14:14:24;2.95;;;0.60;;
71127;SDS011;59249;59.736;30.568;2024-02-26T14:16:54;3.70;;;1.00;;
71127;SDS011;59249;59.736;30.568;2024-02-26T14:19:25;5.00;;;1.00;;
71127;SDS011;59249;59.736;30.568;2024-02-26T14:21:59;2.72;;;0.85;;
71127;SDS011;59249;59.736;30.568;2024-02-26T14:24:31;3.00;;;0.80;;
71127;SDS011;59249;59.736;30.568;2024-02-26T14:27:01;3.05;;;0.57;;
71127;SDS011;59249;59.736;30.568;2024-02-26T14:29:32;4.80;;;1.00;;
71127;SDS011;59249;59.736;30.568;2024-02-26T14:32:01;3.95;;;0.90;;
71127;SDS011;59249;59.736;30.568;2024-02-26T14:34:33;3.58;;;1.00;;
71127;SDS011;59249;59.736;30.568;2024-02-26T14:37:03;3.43;;;0.80;;
71127;SDS011;59249;59.736;30.568;2024-02-26T14:39:33;2.65;;;0.82;;
71127;SDS011;59249;59.736;30.568;2024-02-26T14:42:02;3.67;;;1.00;;
71127;SDS011;59249;59.736;30.568;2024-02-26T14:44:41;4.10;;;0.80;;
71127;SDS011;59249;59.736;30.568;2024-02-26T14:47:13;3.65;;;1.13;;
71127;SDS011;59249;59.736;30.568;2024-02-26T14:49:43;3.37;;;0.97;;
71127;SDS011;59249;59.736;30.568;2024-02-26T14:52:17;2.75;;;0.90;;
71127;SDS011;59249;59.736;30.568;2024-02-26T14:54:46;4.28;;;1.35;;
71127;SDS011;59249;59.736;30.568;2024-02-26T14:57:15;4.70;;;1.20;;
71127;SDS011;59249;59.736;30.568;2024-02-26T14:59:46;4.55;;;1.25;;
71127;SDS011;59249;59.736;30.568;2024-02-26T15:02:16;3.63;;;1.03;;
71127;SDS011;59249;59.736;30.568;2024-02-26T15:04:45;3.88;;;1.38;;